Sadiqabad Weather



Sadiqabad's Current Weather

Temprature 41.06o broken clouds

broken clouds

Rain: 0 %

Min Temprature41.06o
Max Temprature41.06o
Humidity26
Wind Speed1.4 m/h
Sun Rise05:36:50
Sun Set19:14:48
Current Time: 24-Jul-2021 15:06:12
Lat/Lon: 28.3062, 70.1307




Sadiqabad's Geo Location



Sadiqabad's Weather Forecast

Time Overall Temp Min Temp Max Temp Humidity Wind Speed Rain
24-Jul-2021 (Sat)
17:00:00 broken clouds 40.700 40.700 41.710 26 2.35 m/h 0 %
20:00:00 scattered clouds 40.120 40.080 40.120 27 2.44 m/h 0 %
23:00:00 few clouds 38.170 38.170 38.170 33 4.41 m/h 0 %
25-Jul-2021 (Sun)
02:00:00 clear sky 35.450 35.450 35.450 42 5.44 m/h 0 %
05:00:00 clear sky 33.800 33.800 33.800 49 3.53 m/h 0 %
08:00:00 clear sky 35.960 35.960 35.960 41 4.51 m/h 0 %
11:00:00 clear sky 40.870 40.870 40.870 29 4.92 m/h 0 %
14:00:00 scattered clouds 43.570 43.570 43.570 23 4.19 m/h 0 %
17:00:00 scattered clouds 43.830 43.830 43.830 23 5.71 m/h 0 %
20:00:00 broken clouds 40.170 40.170 40.170 32 8.35 m/h 0 %
23:00:00 broken clouds 38.150 38.150 38.150 37 8.33 m/h 0 %
26-Jul-2021 (Mon)
02:00:00 overcast clouds 34.090 34.090 34.090 52 7.7 m/h 0 %
05:00:00 broken clouds 32.010 32.010 32.010 58 6.72 m/h 0 %
08:00:00 overcast clouds 32.810 32.810 32.810 56 6.69 m/h 0 %
11:00:00 overcast clouds 37.610 37.610 37.610 40 6.34 m/h 0 %
14:00:00 few clouds 41.610 41.610 41.610 31 6.19 m/h 0 %
17:00:00 few clouds 41.480 41.480 41.480 31 7.1 m/h 0 %
20:00:00 overcast clouds 38.890 38.890 38.890 36 7.64 m/h 0 %
23:00:00 overcast clouds 34.360 34.360 34.360 50 10.07 m/h 0 %
27-Jul-2021 (Tue)
02:00:00 overcast clouds 31.420 31.420 31.420 63 8.29 m/h 0 %
05:00:00 overcast clouds 30.040 30.040 30.040 69 7.56 m/h 0 %
08:00:00 overcast clouds 31.230 31.230 31.230 64 7.34 m/h 0 %
11:00:00 overcast clouds 34.990 34.990 34.990 50 7.99 m/h 0 %
14:00:00 overcast clouds 36.540 36.540 36.540 44 7.01 m/h 0 %
17:00:00 overcast clouds 37.640 37.640 37.640 41 7.91 m/h 0 %
20:00:00 overcast clouds 34.300 34.300 34.300 51 7.98 m/h 0 %
23:00:00 overcast clouds 32.020 32.020 32.020 59 7.08 m/h 0 %
28-Jul-2021 (Wed)
02:00:00 overcast clouds 30.550 30.550 30.550 65 5.95 m/h 0 %
05:00:00 overcast clouds 29.440 29.440 29.440 70 6.26 m/h 0 %
08:00:00 broken clouds 31.070 31.070 31.070 63 6.04 m/h 0 %
11:00:00 light rain 35.880 35.880 35.880 46 6.31 m/h 15 %
14:00:00 overcast clouds 39.180 39.180 39.180 37 6.32 m/h 0 %
17:00:00 overcast clouds 38.860 38.860 38.860 38 6.71 m/h 0 %
20:00:00 overcast clouds 36.190 36.190 36.190 44 6.04 m/h 0 %
23:00:00 overcast clouds 34.520 34.520 34.520 51 6.35 m/h 0 %
29-Jul-2021 (Thu)
02:00:00 overcast clouds 32.020 32.020 32.020 60 6.18 m/h 0 %
05:00:00 overcast clouds 30.350 30.350 30.350 66 3.99 m/h 0 %
08:00:00 scattered clouds 31.670 31.670 31.670 61 4.09 m/h 0 %
11:00:00 broken clouds 35.760 35.760 35.760 46 2.98 m/h 0 %
14:00:00 overcast clouds 39.510 39.510 39.510 36 4.5 m/h 0 %


Sadiqabad's Tourist Spots

Historical Places in Sadiqabad

Famous Cities (60)